Time;durP1;ratioP1;P1;durP2;ratioP2;P2;SDS_P1;SDS_P2;PMS_P1;PMS_P2;Temp;Humidity;BMP_temperature;BMP_pressure;BME280_temperature;BME280_humidity;BME280_pressure;Samples;Min_cycle;Max_cycle;Signal;HPM_P1;HPM_P2
2022/03/17 00:01:07;;;;;;;21.60;16.77;;;;;;;10.64;70.66;101734.06;5015896;28;20481;-71
2022/03/17 00:03:32;;;;;;;23.08;16.38;;;;;;;10.64;70.65;101731.34;5014108;28;20034;-76
2022/03/17 00:05:57;;;;;;;23.23;16.35;;;;;;;10.62;70.77;101733.44;4996553;28;20034;-73
2022/03/17 00:08:23;;;;;;;22.45;17.25;;;;;;;10.60;71.04;101727.41;4996249;28;20037;-72
2022/03/17 00:10:49;;;;;;;21.65;17.05;;;;;;;10.60;71.29;101725.53;5014301;28;20026;-75
2022/03/17 00:13:14;;;;;;;23.33;16.30;;;;;;;10.60;70.84;101725.53;5013424;28;20065;-73
2022/03/17 00:15:40;;;;;;;20.90;16.08;;;;;;;10.57;70.88;101722.41;5013944;28;20457;-73
2022/03/17 00:18:06;;;;;;;24.38;17.02;;;;;;;10.56;71.26;101723.44;5013736;28;20053;-74
2022/03/17 00:20:32;;;;;;;22.17;16.77;;;;;;;10.54;70.99;101720.94;5013867;28;20034;-72
2022/03/17 00:22:57;;;;;;;21.30;16.75;;;;;;;10.55;71.21;101729.88;5013930;28;20029;-75
2022/03/17 00:25:22;;;;;;;22.05;16.75;;;;;;;10.55;71.37;101716.34;5013613;28;20030;-75
2022/03/17 00:27:48;;;;;;;25.25;16.52;;;;;;;10.53;71.74;101713.00;4995808;28;20030;-71
2022/03/17 00:30:13;;;;;;;23.30;16.27;;;;;;;10.53;71.49;101721.13;5013572;28;20029;-73
2022/03/17 00:32:39;;;;;;;21.00;16.40;;;;;;;10.51;71.58;101720.47;5020803;28;20021;-73
2022/03/17 00:37:50;;;;;;;20.98;16.27;;;;;;;10.50;71.89;101724.25;5013568;28;20130;-76
2022/03/17 00:40:16;;;;;;;23.08;16.58;;;;;;;10.49;71.73;101723.38;5013074;28;20481;-76
2022/03/17 00:42:41;;;;;;;21.85;17.20;;;;;;;10.48;71.55;101720.88;5013006;28;20445;-75
2022/03/17 00:45:09;;;;;;;24.13;16.77;;;;;;;10.48;71.69;101724.44;5013117;28;20045;-76
2022/03/17 00:47:35;;;;;;;21.63;17.08;;;;;;;10.44;72.04;101724.00;5005258;28;20049;-75
2022/03/17 00:50:00;;;;;;;23.33;17.02;;;;;;;10.44;72.83;101734.00;4993899;28;20030;-74
2022/03/17 00:52:25;;;;;;;21.73;16.85;;;;;;;10.42;72.70;101726.09;4993644;28;20076;-76
2022/03/17 00:54:50;;;;;;;22.65;16.60;;;;;;;10.42;72.83;101736.09;4992585;28;20034;-76
2022/03/17 00:57:16;;;;;;;21.23;16.80;;;;;;;10.41;72.77;101740.66;4993457;28;20037;-76
2022/03/17 00:59:41;;;;;;;22.42;16.63;;;;;;;10.40;72.95;101730.03;4993545;28;20027;-76
2022/03/17 01:02:07;;;;;;;21.33;17.13;;;;;;;10.40;73.02;101740.84;4990893;28;20037;-76
2022/03/17 01:04:33;;;;;;;24.33;17.80;;;;;;;10.39;73.21;101739.19;4993282;28;20042;-73
2022/03/17 01:06:59;;;;;;;24.50;17.35;;;;;;;10.38;73.06;101738.34;4993462;28;20034;-72
2022/03/17 01:09:25;;;;;;;23.00;17.67;;;;;;;10.37;73.04;101741.25;4993422;28;20046;-72
2022/03/17 01:11:50;;;;;;;24.45;17.10;;;;;;;10.39;72.95;101742.72;4993495;28;20446;-76
2022/03/17 01:14:15;;;;;;;23.58;17.73;;;;;;;10.37;73.35;101739.41;4993167;28;20386;-73
2022/03/17 01:16:41;;;;;;;25.92;17.13;;;;;;;10.36;73.46;101736.91;5006349;28;20030;-75
2022/03/17 01:19:07;;;;;;;23.85;17.48;;;;;;;10.38;73.47;101740.22;5012660;28;20029;-75
2022/03/17 01:21:32;;;;;;;24.35;17.85;;;;;;;10.36;73.92;101732.31;5028309;28;20132;-77
2022/03/17 01:23:58;;;;;;;23.88;17.55;;;;;;;10.35;73.82;101721.69;5011767;28;20080;-74
2022/03/17 01:26:23;;;;;;;22.88;17.17;;;;;;;10.36;73.77;101731.47;5012818;28;20034;-73
2022/03/17 01:28:48;;;;;;;26.58;18.20;;;;;;;10.38;74.11;101724.00;4999532;28;20026;-74
2022/03/17 01:31:13;;;;;;;26.55;17.77;;;;;;;10.36;73.80;101731.47;5012684;28;20366;-75
2022/03/17 01:33:39;;;;;;;23.25;17.48;;;;;;;10.36;74.46;101724.19;5013233;28;20029;-75
2022/03/17 01:36:04;;;;;;;21.42;17.80;;;;;;;10.38;74.10;101730.22;4995200;28;20393;-74
2022/03/17 01:38:29;;;;;;;22.67;17.48;;;;;;;10.38;74.82;101724.00;5012485;28;20065;-74
2022/03/17 01:40:54;;;;;;;23.20;18.15;;;;;;;10.40;74.08;101728.16;5012600;28;20038;-73
2022/03/17 01:43:20;;;;;;;30.17;18.88;;;;;;;10.39;74.61;101726.50;5006239;28;20104;-72
2022/03/17 01:45:46;;;;;;;24.52;17.52;;;;;;;10.41;74.82;101729.00;4991879;28;20114;-75
2022/03/17 01:48:11;;;;;;;24.63;17.75;;;;;;;10.41;74.18;101735.22;5006134;28;20061;-73
2022/03/17 01:50:37;;;;;;;28.65;18.33;;;;;;;10.40;74.61;101739.00;5012600;28;20026;-76
2022/03/17 01:53:02;;;;;;;25.58;17.67;;;;;;;10.38;74.94;101724.81;5015713;28;20030;-76
2022/03/17 01:55:28;;;;;;;25.80;17.58;;;;;;;10.39;74.88;101737.31;5016420;28;20041;-74
2022/03/17 01:57:54;;;;;;;24.15;18.63;;;;;;;10.40;75.28;101738.13;5016424;28;20092;-72
2022/03/17 02:00:21;;;;;;;23.73;18.30;;;;;;;10.40;75.21;101727.31;5016052;28;20025;-74
2022/03/17 02:02:47;;;;;;;27.00;17.90;;;;;;;10.41;75.05;101723.59;5006377;28;21256;-71
2022/03/17 02:05:13;;;;;;;24.33;17.38;;;;;;;10.41;75.28;101720.88;5016150;28;20642;-72
2022/03/17 02:07:40;;;;;;;25.05;18.77;;;;;;;10.43;75.40;101729.63;5031368;28;20041;-73
2022/03/17 02:10:06;;;;;;;23.35;17.42;;;;;;;10.40;76.05;101717.34;5015829;28;20090;-72
2022/03/17 02:15:15;;;;;;;24.85;18.00;;;;;;;10.41;75.68;101735.22;5015961;28;20095;-72
2022/03/17 02:17:41;;;;;;;23.83;17.65;;;;;;;10.44;75.96;101736.72;5016002;28;20029;-75
2022/03/17 02:20:09;;;;;;;27.35;18.17;;;;;;;10.46;75.63;101740.03;5031403;28;20034;-73
2022/03/17 02:22:41;;;;;;;25.17;17.63;;;;;;;10.45;75.94;101741.91;5016102;28;20029;-72
2022/03/17 02:27:50;;;;;;;25.38;19.02;;;;;;;10.43;76.50;101751.25;5015821;28;20084;-73
2022/03/17 02:30:19;;;;;;;25.92;17.65;;;;;;;10.46;76.37;101753.56;5015366;28;20073;-77
2022/03/17 02:32:45;;;;;;;25.38;18.83;;;;;;;10.44;76.69;101755.66;5015590;28;20063;-76
2022/03/17 02:35:13;;;;;;;27.27;18.75;;;;;;;10.45;76.96;101757.31;5015081;28;20585;-75
2022/03/17 02:37:39;;;;;;;26.70;17.63;;;;;;;10.44;76.36;101761.88;5015769;28;20030;-72
2022/03/17 02:40:08;;;;;;;26.33;19.08;;;;;;;10.46;77.31;101767.94;5015409;28;20026;-72
2022/03/17 02:42:34;;;;;;;42.42;19.92;;;;;;;10.46;77.82;101767.94;4995993;28;20035;-71
2022/03/17 02:45:01;;;;;;;30.88;20.08;;;;;;;10.48;78.68;101762.34;4999927;28;20462;-73
2022/03/17 02:47:27;;;;;;;30.10;21.65;;;;;;;10.53;78.49;101775.25;5015465;28;20069;-75
2022/03/17 02:49:57;;;;;;;33.80;22.13;;;;;;;10.54;79.73;101777.75;5018871;28;20081;-76
2022/03/17 02:52:24;;;;;;;33.70;21.75;;;;;;;10.55;80.48;101786.72;5015537;28;20438;-73
2022/03/17 02:54:50;;;;;;;34.63;23.80;;;;;;;10.63;81.94;101792.78;5039640;28;20034;-74
2022/03/17 02:57:17;;;;;;;35.05;24.13;;;;;;;10.62;82.18;101796.53;5020635;28;20053;-72
2022/03/17 02:59:42;;;;;;;35.42;23.50;;;;;;;10.72;83.44;101798.00;5015432;28;20052;-73
2022/03/17 03:02:07;;;;;;;40.47;26.35;;;;;;;10.60;84.46;101816.72;5012975;28;20474;-73
2022/03/17 03:04:33;;;;;;;36.22;23.73;;;;;;;10.62;85.21;101811.94;5014778;28;20045;-75
2022/03/17 03:06:59;;;;;;;29.85;20.88;;;;;;;10.57;85.07;101815.25;5015128;28;20034;-72
2022/03/17 03:09:25;;;;;;;28.05;20.75;;;;;;;10.44;86.68;101832.25;5015021;28;20129;-76
2022/03/17 03:11:50;;;;;;;26.10;18.52;;;;;;;10.41;87.27;101834.53;5015060;28;20062;-73
2022/03/17 03:14:15;;;;;;;23.33;17.20;;;;;;;10.23;87.59;101841.25;5015067;28;20037;-75
2022/03/17 03:16:40;;;;;;;20.60;16.88;;;;;;;10.19;88.39;101844.53;5015432;28;20487;-72
2022/03/17 03:19:06;;;;;;;19.08;14.73;;;;;;;10.14;88.53;101863.25;5014986;28;20029;-74
2022/03/17 03:21:31;;;;;;;17.80;14.25;;;;;;;9.98;89.28;101870.63;5015246;28;20466;-72
2022/03/17 03:23:57;;;;;;;16.40;13.73;;;;;;;9.96;89.75;101871.84;5014837;28;20033;-76
2022/03/17 03:26:23;;;;;;;17.27;13.60;;;;;;;9.82;90.06;101874.44;5013412;28;20959;-75
2022/03/17 03:28:48;;;;;;;16.23;12.77;;;;;;;9.78;91.17;101883.13;5021205;28;20025;-76
2022/03/17 03:31:13;;;;;;;15.32;12.60;;;;;;;9.71;91.01;101897.41;5016724;28;20030;-79
2022/03/17 03:33:42;;;;;;;15.80;13.27;;;;;;;9.66;91.49;101894.47;5035278;28;20354;-82
2022/03/17 03:38:51;;;;;;;18.17;13.27;;;;;;;9.57;90.70;101903.72;5014591;28;20045;-74
2022/03/17 03:41:16;;;;;;;16.52;13.85;;;;;;;9.46;91.47;101909.63;5014510;28;20394;-75
2022/03/17 03:43:42;;;;;;;15.43;13.48;;;;;;;9.46;91.03;101915.03;5014589;28;20420;-76
2022/03/17 03:46:07;;;;;;;15.48;13.00;;;;;;;9.40;91.33;101927.44;5014856;28;20036;-73
2022/03/17 03:48:33;;;;;;;16.65;13.55;;;;;;;9.36;90.19;101937.81;5013522;28;20050;-72
2022/03/17 03:50:59;;;;;;;17.83;14.13;;;;;;;9.28;90.38;101940.59;5023572;28;20053;-72
2022/03/17 03:54:12;;;;;;;17.05;14.13;;;;;;;9.21;90.67;101950.50;5014571;28;20527;-77
2022/03/17 03:56:09;;;;;;;18.73;13.77;;;;;;;9.16;90.24;101961.88;5014004;28;20046;-72
2022/03/17 03:58:34;;;;;;;17.77;14.23;;;;;;;9.13;89.84;101958.69;5013838;28;20052;-72
2022/03/17 04:01:00;;;;;;;21.00;16.27;;;;;;;9.05;90.39;101984.78;5010787;28;20466;-74
2022/03/17 04:03:25;;;;;;;21.55;16.42;;;;;;;9.07;89.35;101983.75;5014325;28;20038;-74
2022/03/17 04:05:51;;;;;;;20.15;16.08;;;;;;;8.96;90.09;101991.28;5029383;28;20026;-74
2022/03/17 04:08:17;;;;;;;24.80;17.25;;;;;;;8.93;90.43;101988.13;5013525;28;20441;-76
2022/03/17 04:10:42;;;;;;;25.73;16.98;;;;;;;8.88;90.38;102004.91;5013687;28;20026;-76
2022/03/17 04:13:07;;;;;;;22.75;14.93;;;;;;;8.87;89.50;102009.44;5013779;28;20435;-72
2022/03/17 04:15:32;;;;;;;25.60;17.75;;;;;;;8.76;90.59;102015.31;5016048;28;20037;-76
2022/03/17 04:17:57;;;;;;;24.58;18.13;;;;;;;8.75;90.04;102026.28;5024749;28;20080;-75
2022/03/17 04:20:23;;;;;;;23.67;17.60;;;;;;;8.59;90.48;102038.06;5009829;28;20410;-71
2022/03/17 04:22:48;;;;;;;26.00;18.65;;;;;;;8.56;90.79;102041.97;5012829;28;20054;-74
2022/03/17 04:25:14;;;;;;;25.23;18.33;;;;;;;8.56;90.90;102050.06;5012485;28;20022;-77
2022/03/17 04:27:41;;;;;;;25.98;16.48;;;;;;;8.44;90.03;102065.00;5012223;28;20030;-73
2022/03/17 04:30:07;;;;;;;20.23;14.13;;;;;;;8.42;88.98;102057.03;5028627;28;20493;-74
2022/03/17 04:32:32;;;;;;;24.75;14.10;;;;;;;8.34;89.20;102076.84;5013712;28;20033;-73
2022/03/17 04:34:58;;;;;;;25.13;15.15;;;;;;;8.30;88.80;102083.63;5013377;28;20026;-74
2022/03/17 04:37:23;;;;;;;23.35;15.55;;;;;;;8.28;88.19;102088.34;5013728;28;20033;-71
2022/03/17 04:39:48;;;;;;;28.50;15.25;;;;;;;8.23;88.80;102093.44;5013454;28;20476;-71
2022/03/17 04:42:14;;;;;;;28.15;15.25;;;;;;;8.29;88.27;102108.91;5013778;28;20113;-75
2022/03/17 04:44:39;;;;;;;29.25;15.05;;;;;;;8.27;87.51;102116.34;5011608;28;20049;-73
2022/03/17 04:47:04;;;;;;;26.38;14.50;;;;;;;8.15;87.63;102117.75;5013260;28;20481;-75
2022/03/17 04:49:30;;;;;;;24.90;13.95;;;;;;;8.05;87.55;102123.38;4995561;28;20038;-74
2022/03/17 04:51:56;;;;;;;22.65;12.45;;;;;;;8.05;87.31;102133.34;5028413;28;20041;-76
2022/03/17 04:54:21;;;;;;;23.55;11.60;;;;;;;8.05;86.70;102138.72;5013043;28;20034;-74
2022/03/17 04:56:47;;;;;;;29.30;11.50;;;;;;;7.99;86.64;102130.31;5013512;28;20044;-74
2022/03/17 04:59:12;;;;;;;23.92;12.38;;;;;;;8.02;86.03;102139.91;5013090;28;20033;-76
2022/03/17 05:01:38;;;;;;;26.58;12.65;;;;;;;8.06;85.68;102161.94;5010716;28;20865;-77
2022/03/17 05:04:04;;;;;;;25.33;13.15;;;;;;;7.99;85.50;102164.53;5013126;28;20102;-74
2022/03/17 05:06:29;;;;;;;27.38;13.98;;;;;;;7.95;85.27;102168.56;5013193;28;20385;-72
2022/03/17 05:08:55;;;;;;;27.25;13.85;;;;;;;7.97;85.75;102186.25;5011337;28;20038;-74
2022/03/17 05:11:20;;;;;;;20.27;12.60;;;;;;;7.92;85.58;102194.00;5016812;28;20415;-75
2022/03/17 05:13:46;;;;;;;24.90;13.25;;;;;;;7.98;84.63;102195.19;5032946;28;20029;-72
2022/03/17 05:16:13;;;;;;;27.92;12.52;;;;;;;7.86;84.58;102213.59;5022232;28;20114;-73
2022/03/17 05:18:39;;;;;;;25.05;11.20;;;;;;;7.89;83.78;102236.66;5012865;28;20069;-75
2022/03/17 05:21:05;;;;;;;21.33;9.20;;;;;;;7.84;82.82;102234.47;5013066;28;20065;-75
2022/03/17 05:23:33;;;;;;;21.58;8.07;;;;;;;7.81;82.75;102234.84;5014020;28;20042;-74
2022/03/17 05:25:59;;;;;;;22.13;7.63;;;;;;;7.74;82.83;102245.44;5013061;28;20100;-77
2022/03/17 05:28:25;;;;;;;17.13;7.20;;;;;;;7.70;82.78;102245.97;5009178;28;20436;-74
2022/03/17 05:30:51;;;;;;;18.73;6.35;;;;;;;7.67;82.19;102252.56;5044559;28;20042;-74
2022/03/17 05:33:16;;;;;;;16.35;6.28;;;;;;;7.71;81.44;102247.66;5012934;28;20025;-74
2022/03/17 05:35:43;;;;;;;13.88;6.00;;;;;;;7.65;82.33;102259.94;5012741;28;20048;-75
2022/03/17 05:38:09;;;;;;;17.95;6.18;;;;;;;7.61;82.54;102269.41;5011671;28;20122;-76
2022/03/17 05:40:36;;;;;;;18.50;6.05;;;;;;;7.60;81.64;102270.41;5012432;28;20137;-78
2022/03/17 05:43:03;;;;;;;13.07;5.47;;;;;;;7.62;81.89;102280.00;5012400;28;20022;-71
2022/03/17 05:45:29;;;;;;;19.88;5.72;;;;;;;7.65;81.31;102299.53;5013785;28;20030;-73
2022/03/17 05:47:57;;;;;;;14.65;5.65;;;;;;;7.62;81.43;102301.56;5011919;28;20049;-74
2022/03/17 05:50:37;;;;;;;14.75;5.28;;;;;;;7.69;80.87;102300.88;5012321;28;20030;-73
2022/03/17 05:53:03;;;;;;;15.50;5.10;;;;;;;7.65;80.63;102304.91;5012209;28;20033;-76
2022/03/17 05:55:29;;;;;;;13.32;5.30;;;;;;;7.66;80.45;102312.81;5012351;28;20084;-75
2022/03/17 05:57:56;;;;;;;14.10;5.10;;;;;;;7.65;80.40;102315.69;5012621;28;20030;-76
2022/03/17 06:00:23;;;;;;;14.18;4.80;;;;;;;7.64;80.69;102320.25;5012132;28;20030;-77
2022/03/17 06:02:50;;;;;;;11.05;4.70;;;;;;;7.59;80.62;102336.94;5010907;28;20117;-72
2022/03/17 06:05:15;;;;;;;11.95;4.50;;;;;;;7.58;80.83;102334.41;5027428;28;20061;-73
2022/03/17 06:07:45;;;;;;;21.00;5.00;;;;;;;7.53;81.45;102348.34;5021364;28;20061;-74
2022/03/17 06:10:13;;;;;;;13.77;4.63;;;;;;;7.56;81.94;102356.13;5024334;28;20065;-75
2022/03/17 06:12:38;;;;;;;12.10;4.72;;;;;;;7.56;82.10;102360.66;5012120;28;20036;-75
2022/03/17 06:15:05;;;;;;;16.00;5.18;;;;;;;7.50;82.57;102367.53;5012274;28;20026;-75
2022/03/17 06:17:37;;;;;;;15.52;4.90;;;;;;;7.49;82.85;102371.25;5011726;28;20041;-76
2022/03/17 06:20:02;;;;;;;13.27;4.60;;;;;;;7.51;83.39;102382.69;5012322;28;20420;-76
2022/03/17 06:22:28;;;;;;;14.50;5.00;;;;;;;7.50;83.02;102377.47;5011697;28;20036;-77
2022/03/17 06:24:53;;;;;;;12.90;5.10;;;;;;;7.50;82.85;102382.88;5011535;28;20041;-74
2022/03/17 06:27:18;;;;;;;14.57;5.03;;;;;;;7.45;83.92;102386.91;5010977;28;20038;-75
2022/03/17 06:29:43;;;;;;;18.25;5.10;;;;;;;7.47;83.42;102394.81;5016348;28;20060;-73
2022/03/17 06:32:09;;;;;;;13.95;4.85;;;;;;;7.45;83.64;102407.63;5012091;28;20038;-75
2022/03/17 06:34:34;;;;;;;11.93;4.68;;;;;;;7.44;82.74;102411.31;5012126;28;20034;-71
2022/03/17 06:36:59;;;;;;;13.43;4.38;;;;;;;7.41;82.47;102407.13;5012140;28;20113;-73
2022/03/17 06:39:25;;;;;;;15.20;4.82;;;;;;;7.40;82.90;102415.34;5015489;28;20034;-74
2022/03/17 06:41:50;;;;;;;15.52;4.13;;;;;;;7.44;81.74;102432.84;5007479;28;20504;-73
2022/03/17 06:44:15;;;;;;;13.48;4.65;;;;;;;7.40;81.47;102437.75;5030895;28;20117;-77
2022/03/17 06:46:40;;;;;;;14.05;4.32;;;;;;;7.39;82.46;102440.59;5015623;28;20026;-72
2022/03/17 06:49:06;;;;;;;11.20;4.20;;;;;;;7.44;81.65;102449.88;5030797;28;20034;-75
2022/03/17 06:51:31;;;;;;;12.00;4.43;;;;;;;7.41;82.18;102455.59;5033265;28;20503;-73
2022/03/17 06:53:56;;;;;;;12.88;4.65;;;;;;;7.43;82.09;102455.44;5023585;28;20030;-71
2022/03/17 06:56:21;;;;;;;16.00;4.88;;;;;;;7.44;81.17;102457.09;5015512;28;20435;-74
2022/03/17 06:58:47;;;;;;;11.95;4.47;;;;;;;7.51;80.79;102460.81;5006946;28;20033;-75
2022/03/17 07:01:12;;;;;;;15.27;3.95;;;;;;;7.44;80.30;102473.25;5013158;28;20493;-72
2022/03/17 07:03:37;;;;;;;8.68;2.90;;;;;;;7.50;78.76;102474.44;5014892;28;20038;-74
2022/03/17 07:06:02;;;;;;;12.20;3.33;;;;;;;7.43;79.52;102482.38;5015160;28;20117;-76
2022/03/17 07:08:28;;;;;;;13.65;3.00;;;;;;;7.50;78.04;102482.53;5030441;28;20030;-71
2022/03/17 07:10:53;;;;;;;11.25;2.70;;;;;;;7.43;79.36;102482.38;5019111;28;20038;-73
2022/03/17 07:13:18;;;;;;;10.52;2.42;;;;;;;7.48;78.57;102496.16;5031668;28;20116;-74
2022/03/17 07:15:43;;;;;;;11.90;3.08;;;;;;;7.48;78.52;102493.47;5032914;28;20030;-72
2022/03/17 07:18:09;;;;;;;17.25;2.80;;;;;;;7.49;78.06;102499.69;5033858;28;20029;-74
2022/03/17 07:20:34;;;;;;;9.23;2.25;;;;;;;7.45;78.23;102509.97;5004344;28;20064;-74
2022/03/17 07:22:59;;;;;;;8.88;2.70;;;;;;;7.44;78.42;102513.66;5014873;28;20029;-74
2022/03/17 07:25:25;;;;;;;12.25;2.95;;;;;;;7.46;78.54;102519.75;5030320;28;20037;-73
2022/03/17 07:27:50;;;;;;;9.32;2.80;;;;;;;7.40;78.83;102523.09;5024604;28;20037;-74
2022/03/17 07:30:18;;;;;;;11.40;3.10;;;;;;;7.39;79.73;102532.16;5046688;28;20033;-74
2022/03/17 07:32:45;;;;;;;11.35;2.50;;;;;;;7.40;79.17;102550.03;5014865;28;20040;-77
2022/03/17 07:35:11;;;;;;;9.48;2.65;;;;;;;7.33;79.83;102552.50;5015284;28;20079;-76
2022/03/17 07:37:36;;;;;;;9.32;2.53;;;;;;;7.34;79.67;102562.28;5014788;28;20515;-76
2022/03/17 07:40:02;;;;;;;12.45;2.60;;;;;;;7.37;79.00;102571.91;4996951;28;20034;-72
2022/03/17 07:42:27;;;;;;;10.35;2.65;;;;;;;7.29;79.39;102564.59;5009425;28;20521;-76
2022/03/17 07:44:52;;;;;;;13.20;2.17;;;;;;;7.28;80.56;102568.31;5014197;28;20038;-77
2022/03/17 07:47:17;;;;;;;10.05;2.75;;;;;;;7.27;80.15;102567.44;5014189;28;20046;-72
2022/03/17 07:49:43;;;;;;;13.63;2.53;;;;;;;7.32;79.79;102576.91;5013449;28;20461;-73
2022/03/17 07:52:08;;;;;;;9.52;2.15;;;;;;;7.35;78.29;102580.13;5023429;28;20044;-74
2022/03/17 07:54:34;;;;;;;8.50;1.98;;;;;;;7.36;78.65;102586.34;5034199;28;20026;-74
2022/03/17 07:57:00;;;;;;;8.88;2.47;;;;;;;7.38;79.38;102584.34;5034371;28;20033;-72
2022/03/17 07:59:27;;;;;;;10.10;2.30;;;;;;;7.43;79.81;102592.78;5032974;28;20041;-74
2022/03/17 08:01:53;;;;;;;10.27;2.58;;;;;;;7.49;78.36;102596.66;5031675;28;20080;-74
2022/03/17 08:04:18;;;;;;;17.50;2.90;;;;;;;7.53;78.55;102603.44;5034300;28;20037;-73
2022/03/17 08:06:43;;;;;;;10.60;2.30;;;;;;;7.57;77.72;102605.63;5033691;28;20028;-77
2022/03/17 08:09:09;;;;;;;10.70;2.35;;;;;;;7.61;77.22;102609.72;5034071;28;20033;-77
2022/03/17 08:11:34;;;;;;;10.50;2.20;;;;;;;7.63;77.67;102618.47;5016111;28;20029;-75
2022/03/17 08:13:59;;;;;;;9.05;2.13;;;;;;;7.67;76.72;102626.22;5027211;28;20469;-76
2022/03/17 08:16:25;;;;;;;13.32;2.35;;;;;;;7.65;76.84;102623.69;5014312;28;20056;-75
2022/03/17 08:18:51;;;;;;;12.00;2.30;;;;;;;7.64;77.06;102627.41;5013961;28;20033;-72
2022/03/17 08:21:17;;;;;;;10.93;2.65;;;;;;;7.71;76.57;102635.66;5013905;28;20029;-75
2022/03/17 08:23:42;;;;;;;9.05;1.90;;;;;;;7.77;76.73;102640.41;5013651;28;20440;-76
2022/03/17 08:26:08;;;;;;;10.75;1.70;;;;;;;7.79;75.95;102647.34;4996450;28;20034;-72
2022/03/17 08:28:34;;;;;;;12.18;2.20;;;;;;;7.89;72.19;102660.66;5013792;28;20030;-75
2022/03/17 08:30:59;;;;;;;11.23;1.92;;;;;;;7.83;72.48;102655.09;5013911;28;20026;-74
2022/03/17 08:33:24;;;;;;;9.15;2.10;;;;;;;7.84;72.28;102665.72;5013938;28;20464;-73
2022/03/17 08:35:50;;;;;;;12.10;1.90;;;;;;;7.85;71.50;102667.41;5014294;28;20080;-75
2022/03/17 08:38:15;;;;;;;10.48;1.60;;;;;;;7.92;70.56;102676.50;5013864;28;20112;-76
2022/03/17 08:40:41;;;;;;;8.02;1.92;;;;;;;7.85;69.79;102682.72;5013601;28;20473;-76
2022/03/17 08:43:12;;;;;;;12.80;2.03;;;;;;;7.86;69.74;102687.94;5028920;28;20536;-77
2022/03/17 08:51:09;;;;;;;14.73;2.80;;;;;;;7.92;69.33;102711.56;5013509;28;20409;-75
2022/03/17 08:53:35;;;;;;;14.23;2.30;;;;;;;8.06;68.88;102706.56;5013244;28;20461;-73
2022/03/17 08:56:01;;;;;;;10.48;1.75;;;;;;;7.93;69.02;102705.19;5013421;28;20034;-76
2022/03/17 08:58:27;;;;;;;12.38;1.83;;;;;;;7.99;69.59;102709.91;5013738;28;20033;-74
2022/03/17 09:00:52;;;;;;;10.43;1.90;;;;;;;8.07;68.49;102713.66;5010607;28;20022;-74
2022/03/17 09:03:18;;;;;;;8.77;1.83;;;;;;;8.08;68.51;102718.06;5012208;28;20026;-73
2022/03/17 09:05:43;;;;;;;11.98;2.05;;;;;;;8.10;68.03;102718.72;5013280;28;20073;-75
2022/03/17 09:08:09;;;;;;;13.57;2.47;;;;;;;8.04;68.21;102717.50;5013310;28;20115;-76
2022/03/17 09:10:35;;;;;;;15.35;1.90;;;;;;;8.05;68.94;102718.38;5013145;28;20030;-75
2022/03/17 09:13:07;;;;;;;11.93;2.22;;;;;;;8.13;67.83;102734.56;5013264;28;20042;-74
2022/03/17 09:15:41;;;;;;;12.20;2.10;;;;;;;8.09;67.44;102727.81;5012908;28;20040;-77
2022/03/17 09:18:08;;;;;;;9.55;1.88;;;;;;;8.08;67.62;102745.84;5013210;28;20424;-77
2022/03/17 09:20:34;;;;;;;11.75;2.08;;;;;;;8.08;66.67;102763.91;5047819;28;20083;-75
2022/03/17 09:23:01;;;;;;;15.13;2.28;;;;;;;8.03;67.04;102745.50;5032860;28;20032;-74
2022/03/17 09:25:28;;;;;;;14.02;2.15;;;;;;;8.02;68.17;102759.13;5031513;28;20025;-75
2022/03/17 09:27:54;;;;;;;11.80;1.98;;;;;;;8.07;68.06;102764.88;5032230;28;20029;-77
2022/03/17 09:30:19;;;;;;;13.13;2.10;;;;;;;8.07;68.57;102765.72;5032582;28;20128;-74
2022/03/17 09:32:45;;;;;;;13.18;2.22;;;;;;;8.16;68.24;102758.53;5032840;28;20033;-77
2022/03/17 09:35:11;;;;;;;11.18;2.20;;;;;;;8.20;67.97;102756.34;5032379;28;20176;-74
2022/03/17 09:37:37;;;;;;;10.45;2.20;;;;;;;8.19;66.72;102768.97;5032640;28;20033;-75
2022/03/17 09:40:02;;;;;;;12.93;2.05;;;;;;;8.23;65.77;102778.44;5032590;28;20091;-76
2022/03/17 09:42:28;;;;;;;8.00;1.88;;;;;;;8.24;66.49;102784.69;5030751;28;20030;-73
2022/03/17 09:44:53;;;;;;;14.73;2.58;;;;;;;8.24;67.04;102781.97;5032059;28;20064;-74
2022/03/17 09:47:21;;;;;;;7.05;2.15;;;;;;;8.24;66.23;102780.13;5032322;28;20041;-77
2022/03/17 09:49:48;;;;;;;9.40;1.58;;;;;;;8.32;66.53;102796.34;5015213;28;20128;-75
2022/03/17 09:52:15;;;;;;;13.90;2.22;;;;;;;8.26;66.80;102785.38;5032461;28;20489;-75
2022/03/17 09:54:41;;;;;;;13.98;2.00;;;;;;;8.29;66.35;102793.16;5032445;28;20358;-73
2022/03/17 09:57:07;;;;;;;10.00;1.83;;;;;;;8.30;67.23;102801.06;5032239;28;20030;-73
2022/03/17 09:59:32;;;;;;;14.65;2.20;;;;;;;8.40;66.85;102805.50;5032824;28;20040;-77
2022/03/17 10:01:58;;;;;;;11.13;2.03;;;;;;;8.39;67.43;102809.19;5030219;28;20362;-77
2022/03/17 10:04:23;;;;;;;12.45;1.90;;;;;;;8.42;67.00;102819.66;5030509;28;20444;-75
2022/03/17 10:06:50;;;;;;;8.38;1.92;;;;;;;8.46;65.86;102826.47;5032230;28;20033;-73
2022/03/17 10:09:15;;;;;;;13.57;2.38;;;;;;;8.38;65.71;102829.94;5032277;28;20483;-77
2022/03/17 10:11:42;;;;;;;9.52;1.85;;;;;;;8.34;65.73;102829.41;5032075;28;20022;-73
2022/03/17 10:14:08;;;;;;;10.25;1.98;;;;;;;8.39;65.52;102831.59;5034180;28;20060;-76
2022/03/17 10:16:35;;;;;;;9.93;2.15;;;;;;;8.42;65.42;102835.84;5036045;28;20033;-74
2022/03/17 10:19:05;;;;;;;14.80;2.38;;;;;;;8.45;65.66;102841.78;5035996;28;20037;-78
2022/03/17 10:21:31;;;;;;;10.02;1.90;;;;;;;8.51;66.10;102845.69;5036246;28;20480;-74
2022/03/17 10:24:01;;;;;;;14.57;2.15;;;;;;;8.57;65.88;102852.31;5035729;28;20060;-76
2022/03/17 10:26:47;;;;;;;11.15;2.38;;;;;;;8.62;65.60;102861.63;5036064;28;20066;-73
2022/03/17 10:29:17;;;;;;;10.70;2.42;;;;;;;8.61;65.23;102857.22;5017022;28;20052;-77
2022/03/17 10:32:16;;;;;;;13.00;2.00;;;;;;;8.64;65.93;102869.53;5035663;28;20453;-76
2022/03/17 10:34:47;;;;;;;15.15;2.55;;;;;;;8.63;65.73;102876.78;4992011;28;20033;-74
2022/03/17 10:37:16;;;;;;;12.77;2.22;;;;;;;8.66;65.82;102875.63;5034270;28;20516;-75
2022/03/17 10:40:04;;;;;;;12.98;2.58;;;;;;;8.66;64.36;102875.63;5034385;28;20037;-73
2022/03/17 10:42:30;;;;;;;9.82;1.80;;;;;;;8.65;64.59;102890.97;5035542;28;20120;-77
2022/03/17 10:45:05;;;;;;;10.88;2.30;;;;;;;8.66;64.89;102887.25;5017829;28;20075;-77
2022/03/17 10:47:33;;;;;;;15.60;2.10;;;;;;;8.66;65.39;102886.41;5034145;28;20438;-72
2022/03/17 10:50:11;;;;;;;11.73;1.77;;;;;;;8.72;65.33;102895.72;5033594;28;20037;-75
2022/03/17 10:52:47;;;;;;;16.33;2.15;;;;;;;8.61;65.61;102897.69;5035570;28;20037;-74
2022/03/17 10:55:13;;;;;;;8.43;2.13;;;;;;;8.56;65.92;102908.13;5017407;28;20129;-76
2022/03/17 10:57:39;;;;;;;11.25;2.33;;;;;;;8.55;65.53;102908.31;5017808;28;20531;-73
2022/03/17 11:00:09;;;;;;;13.65;2.22;;;;;;;8.51;65.56;102919.41;5035324;28;20033;-74
2022/03/17 11:02:37;;;;;;;9.68;2.25;;;;;;;8.48;66.31;102926.97;5033141;28;20116;-76
2022/03/17 11:05:06;;;;;;;18.92;2.58;;;;;;;8.49;65.30;102934.06;5017605;28;20056;-75
2022/03/17 11:07:32;;;;;;;12.18;2.28;;;;;;;8.47;64.31;102939.63;5035308;28;20060;-75
2022/03/17 11:10:05;;;;;;;7.00;1.95;;;;;;;8.47;63.07;102946.84;5035080;28;20063;-75
2022/03/17 11:12:30;;;;;;;8.68;1.70;;;;;;;8.45;63.82;102940.78;5032862;28;20428;-76
2022/03/17 11:14:56;;;;;;;6.45;1.70;;;;;;;8.53;63.42;102940.84;5017099;28;20033;-73
2022/03/17 11:17:37;;;;;;;12.27;1.80;;;;;;;8.61;62.76;102948.13;5035358;28;20068;-74
2022/03/17 11:20:05;;;;;;;5.60;1.60;;;;;;;8.68;61.82;102950.03;5034868;28;20506;-77
2022/03/17 11:22:34;;;;;;;9.13;1.95;;;;;;;8.77;61.86;102947.34;5034525;28;20035;-76
2022/03/17 11:25:15;;;;;;;8.88;1.80;;;;;;;8.79;62.44;102956.16;5034397;28;20544;-73
2022/03/17 11:27:46;;;;;;;9.27;2.53;;;;;;;8.84;61.08;102959.22;5034562;28;20412;-74
2022/03/17 11:30:14;;;;;;;9.30;1.92;;;;;;;8.80;61.15;102958.69;5034814;28;20033;-76
2022/03/17 11:32:49;;;;;;;10.55;2.13;;;;;;;8.72;61.34;102960.50;5017442;28;20087;-77